createdAt,value
2022-10-15T00:09:33.787Z,10.20
2022-10-15T00:19:36.660Z,10.43
2022-10-15T00:29:41.126Z,10.58
2022-10-15T00:39:44.675Z,10.70
2022-10-15T00:49:56.064Z,10.76
2022-10-15T01:00:01.907Z,10.84
2022-10-15T01:10:08.230Z,10.91
2022-10-15T01:20:49.262Z,10.99
2022-10-15T01:31:00.017Z,11.10
2022-10-15T01:41:10.660Z,11.21
2022-10-15T01:51:18.406Z,11.29
2022-10-15T02:01:22.135Z,11.34
2022-10-15T02:11:27.001Z,11.40
2022-10-15T02:21:37.566Z,11.39
2022-10-15T02:31:44.747Z,11.43
2022-10-15T02:41:49.451Z,11.46
2022-10-15T02:51:53.805Z,11.47
2022-10-15T03:01:56.798Z,11.51
2022-10-15T03:12:02.056Z,11.55
2022-10-15T03:22:06.652Z,11.50
2022-10-15T03:32:20.276Z,11.53
2022-10-15T03:42:24.036Z,11.60
2022-10-15T03:52:29.139Z,11.64
2022-10-15T04:02:33.226Z,11.62
2022-10-15T04:12:37.729Z,11.62
2022-10-15T04:22:40.762Z,11.72
2022-10-15T04:32:45.479Z,11.85
2022-10-15T04:42:49.483Z,11.93
2022-10-15T04:52:56.643Z,11.97
2022-10-15T05:03:01.247Z,12.04
2022-10-15T05:13:21.649Z,12.04
2022-10-15T05:23:26.850Z,11.93
2022-10-15T05:33:44.184Z,11.94
2022-10-15T05:43:48.529Z,11.95
2022-10-15T05:54:01.152Z,11.96
2022-10-15T06:04:05.097Z,12.00
2022-10-15T06:14:12.538Z,11.95
2022-10-15T06:24:15.446Z,11.97
2022-10-15T06:34:20.040Z,11.98
2022-10-15T06:44:23.066Z,11.98
2022-10-15T06:54:27.525Z,11.94
2022-10-15T07:04:30.621Z,11.89
2022-10-15T07:14:40.058Z,11.86
2022-10-15T07:24:45.406Z,11.89
2022-10-15T07:34:49.664Z,12.23
2022-10-15T07:44:52.762Z,12.26
2022-10-15T07:54:57.106Z,12.43
2022-10-15T08:05:00.295Z,12.72
2022-10-15T08:15:04.905Z,13.09
2022-10-15T08:25:08.579Z,13.40
2022-10-15T08:35:13.027Z,13.64
2022-10-15T08:45:19.113Z,13.75
2022-10-15T09:05:42.917Z,14.26
2022-10-15T09:15:52.730Z,14.34
2022-10-15T09:26:03.412Z,14.32
2022-10-15T09:36:21.114Z,14.38
2022-10-15T09:46:24.207Z,14.17
2022-10-15T09:56:37.119Z,14.19
2022-10-15T10:06:46.372Z,14.35
2022-10-15T10:17:19.232Z,14.38
2022-10-15T10:27:26.089Z,14.65
2022-10-15T10:37:41.473Z,14.74
2022-10-15T10:47:45.844Z,14.89
2022-10-15T10:57:53.096Z,15.10
2022-10-15T11:08:04.078Z,15.26
2022-10-15T11:18:21.779Z,15.53
2022-10-15T11:28:39.066Z,15.73
2022-10-15T11:38:48.913Z,15.90
2022-10-15T11:49:03.906Z,15.76
2022-10-15T11:59:20.928Z,15.69
2022-10-15T12:09:29.778Z,16.02
2022-10-15T12:19:41.038Z,16.33
2022-10-15T12:29:44.173Z,16.97
2022-10-15T12:39:56.518Z,17.39
2022-10-15T12:50:05.109Z,17.53
2022-10-15T13:00:34.966Z,17.78
2022-10-15T13:10:42.222Z,17.82
2022-10-15T13:20:49.195Z,17.69
2022-10-15T13:30:52.293Z,17.90
2022-10-15T13:40:56.641Z,18.04
2022-10-15T13:51:02.032Z,17.61
2022-10-15T14:01:15.969Z,17.07
2022-10-15T14:11:19.825Z,16.72
2022-10-15T14:21:29.103Z,16.43
2022-10-15T14:31:38.126Z,16.27
2022-10-15T14:41:56.926Z,16.33
2022-10-15T14:52:04.971Z,16.31
2022-10-15T15:02:16.886Z,16.02
2022-10-15T15:12:27.028Z,15.86
2022-10-15T15:22:35.461Z,15.62
2022-10-15T15:32:39.012Z,15.49
2022-10-15T15:42:44.204Z,15.28
2022-10-15T15:52:47.440Z,15.03
2022-10-15T16:02:54.121Z,14.66
2022-10-15T16:13:00.351Z,14.33
2022-10-15T16:23:04.645Z,14.01
2022-10-15T16:43:17.457Z,13.44
2022-10-15T16:53:20.510Z,13.13
2022-10-15T17:03:24.965Z,12.96
2022-10-15T17:13:28.182Z,12.80
2022-10-15T17:23:32.763Z,12.59
2022-10-15T17:33:36.783Z,12.62
2022-10-15T17:43:41.358Z,12.76
2022-10-15T17:53:45.414Z,12.70
2022-10-15T18:03:50.171Z,12.55
2022-10-15T18:13:55.220Z,12.46
2022-10-15T18:24:01.127Z,12.40
2022-10-15T18:34:04.223Z,12.46
2022-10-15T18:44:14.826Z,12.54
2022-10-15T18:54:17.904Z,12.53
2022-10-15T19:04:24.408Z,12.41
2022-10-15T19:14:29.317Z,12.29
2022-10-15T19:24:33.780Z,12.24
2022-10-15T19:34:37.248Z,12.22
2022-10-15T19:44:41.582Z,12.13
2022-10-15T19:54:44.673Z,12.05
2022-10-15T20:04:49.243Z,12.05
2022-10-15T20:14:52.474Z,12.06
2022-10-15T20:24:57.802Z,12.02
2022-10-15T20:35:01.060Z,11.95
2022-10-15T20:45:06.590Z,11.88
2022-10-15T20:55:10.576Z,11.82
2022-10-15T21:05:15.159Z,11.76
2022-10-15T21:15:18.505Z,11.76
2022-10-15T21:25:22.907Z,11.65
2022-10-15T21:35:25.977Z,11.58
2022-10-15T21:45:30.283Z,11.54
2022-10-15T21:55:33.768Z,11.52
2022-10-15T22:05:38.107Z,11.48
2022-10-15T22:15:41.112Z,11.42
2022-10-15T22:25:46.347Z,11.36
2022-10-15T22:35:49.292Z,11.33
2022-10-15T22:45:53.617Z,11.33
2022-10-15T22:55:57.661Z,11.31
2022-10-15T23:06:01.883Z,11.31
2022-10-15T23:16:10.660Z,11.31
2022-10-15T23:26:16.851Z,11.30
2022-10-15T23:36:20.722Z,11.28
2022-10-15T23:46:25.507Z,11.26
2022-10-15T23:56:29.466Z,11.27
